Terminal Aerodrome Forecast
Issued by NWS

Home | Current Version | Previous Version | Text Only | Print | Product List | Glossary On
Versions: 1 2 3 4 5 6 7 8 9 10 11 12 13 14
848
FTUS45 KFGZ 271132
TAFPGA
TAF
KPGA 271132Z 2712/2812 VRB05KT P6SM FEW080 SCT100
     FM271800 01006KT P6SM SCT050 BKN080
     FM280200 VRB05KT P6SM FEW080 SCT100=

USA.gov is the U.S. government's official web portal to all federal, state and local government web resources and services.